createdAt,value
2022-12-31T00:02:26.025Z,1.45
2022-12-31T00:04:54.661Z,3.17
2022-12-31T00:07:21.309Z,10.10
2022-12-31T00:09:48.036Z,4.60
2022-12-31T00:12:14.688Z,7.28
2022-12-31T00:14:41.427Z,3.10
2022-12-31T00:17:08.201Z,6.18
2022-12-31T00:19:34.935Z,5.50
2022-12-31T00:22:01.669Z,3.47
2022-12-31T00:24:31.230Z,3.05
2022-12-31T00:26:58.013Z,2.20
2022-12-31T00:29:24.792Z,4.50
2022-12-31T00:31:51.506Z,2.13
2022-12-31T00:34:18.171Z,2.70
2022-12-31T00:36:46.104Z,1.80
2022-12-31T00:39:13.061Z,10.48
2022-12-31T00:41:39.867Z,4.55
2022-12-31T00:44:06.744Z,3.97
2022-12-31T00:46:33.564Z,5.25
2022-12-31T00:49:00.354Z,3.42
2022-12-31T00:51:30.044Z,4.93
2022-12-31T00:53:57.735Z,3.17
2022-12-31T00:56:27.618Z,4.57
2022-12-31T00:58:54.463Z,5.85
2022-12-31T01:01:22.743Z,2.25
2022-12-31T01:03:52.703Z,4.25
2022-12-31T01:06:19.697Z,4.43
2022-12-31T01:08:49.238Z,4.32
2022-12-31T01:11:29.152Z,2.78
2022-12-31T01:13:59.539Z,6.15
2022-12-31T01:16:32.441Z,4.35
2022-12-31T01:19:04.849Z,5.72
2022-12-31T01:21:33.258Z,5.95
2022-12-31T01:24:00.243Z,4.20
2022-12-31T01:26:27.718Z,2.75
2022-12-31T01:28:54.808Z,5.78
2022-12-31T01:31:23.082Z,2.03
2022-12-31T01:33:53.168Z,6.55
2022-12-31T01:36:26.588Z,2.97
2022-12-31T01:38:58.581Z,2.47
2022-12-31T01:41:32.803Z,5.47
2022-12-31T01:44:03.883Z,8.02
2022-12-31T01:46:39.370Z,7.78
2022-12-31T01:49:27.930Z,4.22
2022-12-31T01:52:02.554Z,4.20
2022-12-31T01:54:33.577Z,7.70
2022-12-31T01:57:00.721Z,4.97
2022-12-31T01:59:28.938Z,2.92
2022-12-31T02:01:56.291Z,7.78
2022-12-31T02:04:25.132Z,5.13
2022-12-31T02:07:08.087Z,6.47
2022-12-31T02:09:38.427Z,4.07
2022-12-31T02:12:07.115Z,4.07
2022-12-31T02:14:39.165Z,4.22
2022-12-31T02:17:21.655Z,2.15
2022-12-31T02:19:57.502Z,7.13
2022-12-31T02:23:03.856Z,3.58
2022-12-31T02:25:49.405Z,6.38
2022-12-31T02:28:46.969Z,3.40
2022-12-31T02:31:20.687Z,3.70
2022-12-31T02:34:09.390Z,5.80
2022-12-31T02:36:40.636Z,3.22
2022-12-31T02:39:10.166Z,4.53
2022-12-31T02:41:52.130Z,3.30
2022-12-31T02:44:24.546Z,3.63
2022-12-31T02:47:13.775Z,3.42
2022-12-31T02:49:49.375Z,5.32
2022-12-31T02:52:46.306Z,4.18
2022-12-31T02:55:31.776Z,7.05
2022-12-31T02:58:43.444Z,3.90
2022-12-31T03:01:29.438Z,4.45
2022-12-31T03:04:16.243Z,6.55
2022-12-31T03:06:43.429Z,9.15
2022-12-31T03:09:13.060Z,3.42
2022-12-31T03:11:58.573Z,4.88
2022-12-31T03:14:25.337Z,6.53
2022-12-31T03:16:51.985Z,7.78
2022-12-31T03:19:37.359Z,8.57
2022-12-31T03:22:24.395Z,4.20
2022-12-31T03:25:09.899Z,5.30
2022-12-31T03:27:36.721Z,2.30
2022-12-31T03:30:04.750Z,5.00
2022-12-31T03:32:31.613Z,8.35
2022-12-31T03:34:58.377Z,3.17
2022-12-31T03:37:25.207Z,1.85
2022-12-31T03:39:51.974Z,5.18
2022-12-31T03:42:18.724Z,7.65
2022-12-31T03:44:45.373Z,3.78
2022-12-31T03:47:12.085Z,7.88
2022-12-31T03:49:38.761Z,13.48
2022-12-31T03:52:06.516Z,2.05
2022-12-31T03:54:33.290Z,2.38
2022-12-31T03:57:00.542Z,6.22
2022-12-31T03:59:27.293Z,3.47
2022-12-31T04:01:54.116Z,5.93
2022-12-31T04:04:21.046Z,5.22
2022-12-31T04:06:48.196Z,3.35
2022-12-31T04:09:14.810Z,3.47
2022-12-31T04:11:41.715Z,11.93
2022-12-31T04:14:08.395Z,6.15
2022-12-31T04:16:35.117Z,6.85
2022-12-31T04:19:03.083Z,5.90
2022-12-31T04:21:34.794Z,3.50
2022-12-31T04:24:02.713Z,3.35
2022-12-31T04:26:29.983Z,2.95
2022-12-31T04:28:57.062Z,6.88
2022-12-31T04:31:23.859Z,4.25
2022-12-31T04:33:50.810Z,4.13
2022-12-31T04:36:17.552Z,5.63
2022-12-31T04:38:44.317Z,7.68
2022-12-31T04:41:17.052Z,3.72
2022-12-31T04:43:47.019Z,5.78
2022-12-31T04:46:14.574Z,5.38
2022-12-31T04:48:41.957Z,3.58
2022-12-31T04:51:08.669Z,2.25
2022-12-31T04:53:35.738Z,8.55
2022-12-31T04:56:02.528Z,2.80
2022-12-31T04:58:29.422Z,3.25
2022-12-31T05:00:56.613Z,3.83
2022-12-31T05:03:25.258Z,6.78
2022-12-31T05:05:52.743Z,5.65
2022-12-31T05:08:20.738Z,3.90
2022-12-31T05:10:49.291Z,5.00
2022-12-31T05:13:16.512Z,4.78
2022-12-31T05:15:43.434Z,2.42
2022-12-31T05:18:10.111Z,7.03
2022-12-31T05:20:36.969Z,3.13
2022-12-31T05:23:04.055Z,7.13
2022-12-31T05:25:31.621Z,3.20
2022-12-31T05:27:58.268Z,5.40
2022-12-31T05:30:25.473Z,4.90
2022-12-31T05:32:52.567Z,6.50
2022-12-31T05:35:19.372Z,4.63
2022-12-31T05:37:46.138Z,2.53
2022-12-31T05:40:13.530Z,3.10
2022-12-31T05:42:40.215Z,4.88
2022-12-31T05:45:07.497Z,3.38
2022-12-31T05:47:34.247Z,8.80
2022-12-31T05:50:00.980Z,4.65
2022-12-31T05:52:27.648Z,4.75
2022-12-31T05:54:54.401Z,2.78
2022-12-31T05:57:21.140Z,1.70
2022-12-31T05:59:47.890Z,5.60
2022-12-31T06:02:14.587Z,4.72
2022-12-31T06:04:41.410Z,3.38
2022-12-31T06:07:08.583Z,4.18
2022-12-31T06:09:35.278Z,4.10
2022-12-31T06:12:02.142Z,5.10
2022-12-31T06:14:28.776Z,4.05
2022-12-31T06:16:55.475Z,3.33
2022-12-31T06:19:22.183Z,5.45
2022-12-31T06:21:49.330Z,3.47
2022-12-31T06:24:16.104Z,2.50
2022-12-31T06:26:42.861Z,5.93
2022-12-31T06:29:10.424Z,2.28
2022-12-31T06:31:37.531Z,6.18
2022-12-31T06:34:04.529Z,4.97
2022-12-31T06:36:31.253Z,3.08
2022-12-31T06:38:59.422Z,6.50
2022-12-31T06:41:26.266Z,3.90
2022-12-31T06:43:53.834Z,5.80
2022-12-31T06:46:20.548Z,4.18
2022-12-31T06:48:47.464Z,4.55
2022-12-31T06:51:17.815Z,4.50
2022-12-31T06:53:49.633Z,2.70
2022-12-31T06:56:31.395Z,1.70
2022-12-31T06:59:00.655Z,3.25
2022-12-31T07:01:59.091Z,1.45
2022-12-31T07:04:58.579Z,1.73
2022-12-31T07:07:25.316Z,1.85
2022-12-31T07:10:07.358Z,2.63
2022-12-31T07:12:52.796Z,5.40
2022-12-31T07:16:04.398Z,3.45
2022-12-31T07:21:13.152Z,2.85
2022-12-31T07:23:41.209Z,3.92
2022-12-31T07:26:34.195Z,3.50
2022-12-31T07:29:22.058Z,1.80
2022-12-31T07:32:33.456Z,9.27
2022-12-31T07:35:27.321Z,19.08
2022-12-31T07:38:32.130Z,25.48
2022-12-31T07:41:10.008Z,6.95
2022-12-31T07:43:56.530Z,5.53
2022-12-31T07:46:40.375Z,4.72
2022-12-31T07:49:12.837Z,5.70
2022-12-31T07:51:40.474Z,11.48
2022-12-31T07:54:13.401Z,10.15
2022-12-31T07:56:41.241Z,9.10
2022-12-31T07:59:45.502Z,2.08
2022-12-31T08:02:33.491Z,3.03
2022-12-31T08:05:16.378Z,2.47
2022-12-31T08:08:23.504Z,6.00
2022-12-31T08:10:56.338Z,1.88
2022-12-31T08:13:23.178Z,5.85
2022-12-31T08:15:50.154Z,10.02
2022-12-31T08:18:17.783Z,5.40
2022-12-31T08:21:02.545Z,4.93
2022-12-31T08:23:59.319Z,5.43
2022-12-31T08:26:37.573Z,4.80
2022-12-31T08:29:06.728Z,2.92
2022-12-31T08:32:12.092Z,5.55
2022-12-31T08:34:45.582Z,5.70
2022-12-31T08:38:04.892Z,3.13
2022-12-31T08:40:46.157Z,5.40
2022-12-31T08:43:27.827Z,7.68
2022-12-31T08:45:56.788Z,7.78
2022-12-31T08:48:43.851Z,5.35
2022-12-31T08:51:19.042Z,4.18
2022-12-31T08:53:46.261Z,6.93
2022-12-31T08:56:48.778Z,3.45
2022-12-31T08:59:22.873Z,4.78
2022-12-31T09:01:49.653Z,2.50
2022-12-31T09:04:29.106Z,4.30
2022-12-31T09:07:03.059Z,2.72
2022-12-31T09:09:33.259Z,6.68
2022-12-31T09:12:15.273Z,5.07
2022-12-31T09:14:48.803Z,3.13
2022-12-31T09:17:39.995Z,4.18
2022-12-31T09:20:13.877Z,4.65
2022-12-31T09:22:40.930Z,2.80
2022-12-31T09:25:12.383Z,4.25
2022-12-31T09:27:51.711Z,6.15
2022-12-31T09:30:19.052Z,7.30
2022-12-31T09:33:04.771Z,6.43
2022-12-31T09:36:03.666Z,6.35
2022-12-31T09:38:55.015Z,7.75
2022-12-31T09:41:45.695Z,4.55
2022-12-31T09:44:30.942Z,5.85
2022-12-31T09:47:28.545Z,6.80
2022-12-31T09:50:23.661Z,7.38
2022-12-31T09:53:18.962Z,3.75
2022-12-31T09:55:49.922Z,2.78
2022-12-31T09:58:31.033Z,3.03
2022-12-31T10:01:06.962Z,5.07
2022-12-31T10:03:59.061Z,5.97
2022-12-31T10:06:52.318Z,4.82
2022-12-31T10:09:25.027Z,5.35
2022-12-31T10:12:00.540Z,9.65
2022-12-31T10:14:48.976Z,8.10
2022-12-31T10:17:23.459Z,4.30
2022-12-31T10:20:16.451Z,7.47
2022-12-31T10:23:08.400Z,4.05
2022-12-31T10:25:39.673Z,5.13
2022-12-31T10:28:30.163Z,7.25
2022-12-31T10:31:27.388Z,9.15
2022-12-31T10:34:27.109Z,6.63
2022-12-31T10:36:55.629Z,3.65
2022-12-31T10:39:37.678Z,5.00
2022-12-31T10:42:36.299Z,4.80
2022-12-31T10:45:22.912Z,6.22
2022-12-31T10:48:16.811Z,5.55
2022-12-31T10:50:58.579Z,4.10
2022-12-31T10:54:05.393Z,4.00
2022-12-31T10:56:50.331Z,1.80
2022-12-31T10:59:34.604Z,7.78
2022-12-31T11:02:38.825Z,5.90
2022-12-31T11:05:23.747Z,15.65
2022-12-31T11:08:02.777Z,10.60
2022-12-31T11:10:38.340Z,8.05
2022-12-31T11:13:38.681Z,4.75
2022-12-31T11:16:29.594Z,5.85
2022-12-31T11:19:01.962Z,5.82
2022-12-31T11:21:47.228Z,10.75
2022-12-31T11:24:33.825Z,4.85
2022-12-31T11:27:22.017Z,3.78
2022-12-31T11:30:03.670Z,5.75
2022-12-31T11:32:41.850Z,4.20
2022-12-31T11:35:22.567Z,6.38
2022-12-31T11:38:17.793Z,7.07
2022-12-31T11:40:48.405Z,6.65
2022-12-31T11:43:34.581Z,4.50
2022-12-31T11:46:10.457Z,6.85
2022-12-31T11:48:52.980Z,8.70
2022-12-31T11:51:19.729Z,7.82
2022-12-31T11:54:25.175Z,6.05
2022-12-31T11:56:58.475Z,9.27
2022-12-31T11:59:25.152Z,12.00
2022-12-31T12:02:00.836Z,8.57
2022-12-31T12:04:28.228Z,6.85
2022-12-31T12:06:55.043Z,4.55
2022-12-31T12:09:31.228Z,6.22
2022-12-31T12:12:01.149Z,4.22
2022-12-31T12:14:32.947Z,7.68
2022-12-31T12:17:04.671Z,3.67
2022-12-31T12:22:26.623Z,14.57
2022-12-31T12:25:08.108Z,5.53
2022-12-31T12:27:36.206Z,4.10
2022-12-31T12:30:19.494Z,4.10
2022-12-31T12:32:58.085Z,5.75
2022-12-31T12:35:36.703Z,5.15
2022-12-31T12:38:13.754Z,5.32
2022-12-31T12:40:41.015Z,5.78
2022-12-31T12:43:22.630Z,4.40
2022-12-31T12:45:52.341Z,5.95
2022-12-31T12:48:30.794Z,6.95
2022-12-31T12:50:59.260Z,4.45
2022-12-31T12:53:35.125Z,3.72
2022-12-31T12:56:30.644Z,3.78
2022-12-31T12:59:27.952Z,4.88
2022-12-31T13:02:08.531Z,8.45
2022-12-31T13:05:03.427Z,4.28
2022-12-31T13:07:59.120Z,7.25
2022-12-31T13:10:47.339Z,4.75
2022-12-31T13:13:24.594Z,7.70
2022-12-31T13:16:23.873Z,6.15
2022-12-31T13:19:09.289Z,4.07
2022-12-31T13:21:39.453Z,7.07
2022-12-31T13:24:24.894Z,7.13
2022-12-31T13:27:22.440Z,9.18
2022-12-31T13:29:49.613Z,3.05
2022-12-31T13:32:28.117Z,4.57
2022-12-31T13:35:01.712Z,6.30
2022-12-31T13:37:41.973Z,6.18
2022-12-31T13:40:21.195Z,5.82
2022-12-31T13:43:14.689Z,7.43
2022-12-31T13:45:45.505Z,5.50
2022-12-31T13:48:18.839Z,6.22
2022-12-31T13:51:00.508Z,10.13
2022-12-31T13:53:36.593Z,7.28
2022-12-31T13:56:11.100Z,3.80
2022-12-31T13:58:57.672Z,9.70
2022-12-31T14:01:33.848Z,8.70
2022-12-31T14:04:18.331Z,9.18
2022-12-31T14:07:11.367Z,3.33
2022-12-31T14:09:38.359Z,5.95
2022-12-31T14:12:05.002Z,4.93
2022-12-31T14:14:48.944Z,5.97
2022-12-31T14:17:23.577Z,10.35
2022-12-31T14:20:07.388Z,5.47
2022-12-31T14:23:03.000Z,6.72
2022-12-31T14:25:47.991Z,5.72
2022-12-31T14:28:47.070Z,3.08
2022-12-31T14:31:46.300Z,5.80
2022-12-31T14:34:24.632Z,5.38
2022-12-31T14:37:06.461Z,7.60
2022-12-31T14:40:00.369Z,3.47
2022-12-31T14:42:46.798Z,7.13
2022-12-31T14:45:25.609Z,6.30
2022-12-31T14:48:04.353Z,5.18
2022-12-31T14:50:33.894Z,3.45
2022-12-31T14:53:03.467Z,6.78
2022-12-31T14:55:33.767Z,8.88
2022-12-31T14:58:28.922Z,5.17
2022-12-31T15:01:19.921Z,3.38
2022-12-31T15:03:51.793Z,7.22
2022-12-31T15:06:33.183Z,8.00
2022-12-31T15:12:06.500Z,3.45
2022-12-31T15:20:01.440Z,1.85
2022-12-31T15:22:33.977Z,4.13
2022-12-31T15:25:01.204Z,4.80
2022-12-31T15:27:35.806Z,5.60
2022-12-31T15:30:04.981Z,6.65
2022-12-31T15:32:35.167Z,4.65
2022-12-31T15:35:20.975Z,8.73
2022-12-31T15:38:15.626Z,5.63
2022-12-31T15:40:50.677Z,5.35
2022-12-31T15:43:43.445Z,4.85
2022-12-31T15:46:18.688Z,3.90
2022-12-31T15:49:01.948Z,6.07
2022-12-31T15:51:41.681Z,4.85
2022-12-31T15:54:23.153Z,8.00
2022-12-31T15:56:51.416Z,2.25
2022-12-31T15:59:20.454Z,7.00
2022-12-31T16:01:47.961Z,5.05
2022-12-31T16:04:33.510Z,6.90
2022-12-31T16:07:03.451Z,6.85
2022-12-31T16:09:35.989Z,7.55
2022-12-31T16:12:10.089Z,8.35
2022-12-31T16:14:40.545Z,5.40
2022-12-31T16:17:20.711Z,5.45
2022-12-31T16:19:47.760Z,4.35
2022-12-31T16:22:24.828Z,7.78
2022-12-31T16:25:38.869Z,11.15
2022-12-31T16:27:43.626Z,4.10
2022-12-31T16:30:25.623Z,7.75
2022-12-31T16:32:55.912Z,13.90
2022-12-31T16:35:31.353Z,2.80
2022-12-31T16:38:13.658Z,6.22
2022-12-31T16:40:42.876Z,5.82
2022-12-31T16:43:25.022Z,9.95
2022-12-31T16:45:52.361Z,11.68
2022-12-31T16:48:21.050Z,9.38
2022-12-31T16:50:52.757Z,3.70
2022-12-31T16:53:24.998Z,8.00
2022-12-31T16:55:56.783Z,7.53
2022-12-31T16:58:37.372Z,4.88
2022-12-31T17:01:28.013Z,4.63
2022-12-31T17:03:59.891Z,7.70
2022-12-31T17:06:28.442Z,5.68
2022-12-31T17:09:00.870Z,15.93
2022-12-31T17:11:33.183Z,12.52
2022-12-31T17:14:05.906Z,15.65
2022-12-31T17:16:34.373Z,14.35
2022-12-31T17:19:01.404Z,11.20
2022-12-31T17:21:31.172Z,10.18
2022-12-31T17:24:06.322Z,12.27
2022-12-31T17:26:37.386Z,12.90
2022-12-31T17:29:05.946Z,11.68
2022-12-31T17:31:34.560Z,11.88
2022-12-31T17:34:18.008Z,10.68
2022-12-31T17:37:13.047Z,9.98
2022-12-31T17:39:45.943Z,19.50
2022-12-31T17:42:15.505Z,12.13
2022-12-31T17:44:44.350Z,13.30
2022-12-31T17:47:14.078Z,16.83
2022-12-31T17:49:45.024Z,18.73
2022-12-31T17:52:15.776Z,16.52
2022-12-31T17:54:43.054Z,13.90
2022-12-31T17:57:24.091Z,16.10
2022-12-31T17:59:50.947Z,10.82
2022-12-31T18:02:17.829Z,12.40
2022-12-31T18:04:47.218Z,10.38
2022-12-31T18:07:13.890Z,19.50
2022-12-31T18:09:40.604Z,13.48
2022-12-31T18:12:08.353Z,15.00
2022-12-31T18:14:35.165Z,14.38
2022-12-31T18:17:01.969Z,12.07
2022-12-31T18:22:16.612Z,10.30
2022-12-31T18:24:44.549Z,10.27
2022-12-31T18:27:18.888Z,9.93
2022-12-31T18:29:46.769Z,17.00
2022-12-31T18:32:23.584Z,11.70
2022-12-31T18:34:50.731Z,9.18
2022-12-31T18:37:22.099Z,9.82
2022-12-31T18:39:49.432Z,10.02
2022-12-31T18:42:18.301Z,17.95
2022-12-31T18:44:45.566Z,14.25
2022-12-31T18:47:17.314Z,17.05
2022-12-31T18:49:45.113Z,17.38
2022-12-31T18:52:17.386Z,15.90
2022-12-31T18:54:44.395Z,16.38
2022-12-31T18:57:12.288Z,20.08
2022-12-31T18:59:39.434Z,14.30
2022-12-31T19:02:14.505Z,12.48
2022-12-31T19:04:41.311Z,14.55
2022-12-31T19:07:07.953Z,15.98
2022-12-31T19:09:54.572Z,14.65
2022-12-31T19:12:21.445Z,21.05
2022-12-31T19:14:48.144Z,12.73
2022-12-31T19:17:14.802Z,13.85
2022-12-31T19:19:41.536Z,12.75
2022-12-31T19:22:15.067Z,14.48
2022-12-31T19:24:41.763Z,9.90
2022-12-31T19:27:09.833Z,8.98
2022-12-31T19:29:36.552Z,13.07
2022-12-31T19:32:03.238Z,11.38
2022-12-31T19:34:29.939Z,10.27
2022-12-31T19:36:56.594Z,10.52
2022-12-31T19:39:23.273Z,9.13
2022-12-31T19:41:56.549Z,13.25
2022-12-31T19:44:25.736Z,12.23
2022-12-31T19:46:52.649Z,11.25
2022-12-31T19:49:19.334Z,5.97
2022-12-31T19:51:46.125Z,9.45
2022-12-31T19:54:13.426Z,11.18
2022-12-31T19:56:40.160Z,7.57
2022-12-31T19:59:09.535Z,8.88
2022-12-31T20:01:36.556Z,9.70
2022-12-31T20:04:03.541Z,14.15
2022-12-31T20:06:30.238Z,11.00
2022-12-31T20:08:56.997Z,8.65
2022-12-31T20:11:24.504Z,7.78
2022-12-31T20:13:54.906Z,8.45
2022-12-31T20:16:24.700Z,11.10
2022-12-31T20:18:51.563Z,8.98
2022-12-31T20:21:24.360Z,8.80
2022-12-31T20:23:52.118Z,10.30
2022-12-31T20:26:20.623Z,11.45
2022-12-31T20:28:47.598Z,9.98
2022-12-31T20:31:21.390Z,10.18
2022-12-31T20:33:48.332Z,8.48
2022-12-31T20:36:17.027Z,12.38
2022-12-31T20:38:44.335Z,8.23
2022-12-31T20:41:14.710Z,11.20
2022-12-31T20:43:41.863Z,9.33
2022-12-31T20:46:15.645Z,11.25
2022-12-31T20:48:44.216Z,10.55
2022-12-31T20:51:11.452Z,13.05
2022-12-31T20:53:38.426Z,13.02
2022-12-31T20:56:09.665Z,17.60
2022-12-31T21:01:06.761Z,11.85
2022-12-31T21:04:05.061Z,8.23
2022-12-31T21:06:26.234Z,10.30
2022-12-31T21:08:54.935Z,9.70
2022-12-31T21:11:40.255Z,8.88
2022-12-31T21:14:07.211Z,5.43
2022-12-31T21:16:34.071Z,7.57
2022-12-31T21:19:01.635Z,12.85
2022-12-31T21:21:28.596Z,8.52
2022-12-31T21:23:55.497Z,8.60
2022-12-31T21:26:22.164Z,9.32
2022-12-31T21:28:48.863Z,9.68
2022-12-31T21:31:16.816Z,7.47
2022-12-31T21:33:45.288Z,8.38
2022-12-31T21:36:12.538Z,11.63
2022-12-31T21:38:39.802Z,7.75
2022-12-31T21:41:08.007Z,8.00
2022-12-31T21:43:35.147Z,6.28
2022-12-31T21:46:04.466Z,6.18
2022-12-31T21:48:32.027Z,7.03
2022-12-31T21:51:10.019Z,6.68
2022-12-31T21:53:37.478Z,8.20
2022-12-31T21:56:08.349Z,5.68
2022-12-31T21:58:40.469Z,6.55
2022-12-31T22:01:28.628Z,9.10
2022-12-31T22:03:55.483Z,8.05
2022-12-31T22:06:24.005Z,6.63
2022-12-31T22:08:53.736Z,6.45
2022-12-31T22:11:22.727Z,3.17
2022-12-31T22:13:49.768Z,8.30
2022-12-31T22:16:18.527Z,8.07
2022-12-31T22:18:45.229Z,7.03
2022-12-31T22:21:20.048Z,8.43
2022-12-31T22:23:52.363Z,4.38
2022-12-31T22:26:21.651Z,7.82
2022-12-31T22:28:48.524Z,7.72
2022-12-31T22:31:21.696Z,8.15
2022-12-31T22:33:48.985Z,5.88
2022-12-31T22:36:18.231Z,8.10
2022-12-31T22:38:45.230Z,6.95
2022-12-31T22:41:14.806Z,9.65
2022-12-31T22:43:44.565Z,16.15
2022-12-31T22:46:18.653Z,5.55
2022-12-31T22:48:45.631Z,4.38
2022-12-31T22:51:13.382Z,6.80
2022-12-31T22:53:41.329Z,8.23
2022-12-31T22:56:09.385Z,6.85
2022-12-31T22:58:36.394Z,8.18
2022-12-31T23:01:14.318Z,7.32
2022-12-31T23:07:32.456Z,10.45
2022-12-31T23:15:45.193Z,9.43
2022-12-31T23:18:38.644Z,9.25
2022-12-31T23:21:28.897Z,9.77
2022-12-31T23:23:55.642Z,6.63
2022-12-31T23:26:22.296Z,6.20
2022-12-31T23:28:49.045Z,6.32
2022-12-31T23:31:15.740Z,7.57
2022-12-31T23:33:42.440Z,6.97
2022-12-31T23:36:09.429Z,7.75
2022-12-31T23:38:36.208Z,5.50
2022-12-31T23:41:12.183Z,5.10
2022-12-31T23:43:38.871Z,7.68
2022-12-31T23:46:05.625Z,9.75
2022-12-31T23:48:32.360Z,10.48
2022-12-31T23:50:59.253Z,12.68
2022-12-31T23:53:26.138Z,11.48
2022-12-31T23:55:53.202Z,10.15
2022-12-31T23:58:21.205Z,5.38
